createdAt,value
2019-04-23T00:00:43.640Z,2.20
2019-04-23T00:06:12.104Z,9.43
2019-04-23T00:11:31.305Z,4.20
2019-04-23T00:16:44.816Z,6.62
2019-04-23T00:22:08.784Z,6.20
2019-04-23T00:32:48.059Z,3.45
2019-04-23T00:43:48.727Z,3.33
2019-04-23T00:48:59.224Z,5.23
2019-04-23T00:54:12.207Z,2.47
2019-04-23T00:59:41.158Z,3.17
2019-04-23T01:05:01.298Z,2.67
2019-04-23T01:10:18.372Z,3.72
2019-04-23T01:15:42.515Z,4.65
2019-04-23T01:20:52.831Z,2.90
2019-04-23T01:26:16.547Z,3.70
2019-04-23T01:31:42.766Z,5.10
2019-04-23T01:37:01.073Z,5.57
2019-04-23T01:42:33.427Z,5.10
2019-04-23T01:47:45.449Z,3.87
2019-04-23T02:18:33.826Z,7.80
2019-04-23T02:23:55.624Z,4.93
2019-04-23T02:29:28.658Z,5.83
2019-04-23T02:40:03.979Z,3.80
2019-04-23T02:45:36.115Z,5.17
2019-04-23T03:01:31.998Z,6.73
2019-04-23T03:06:48.086Z,7.53
2019-04-23T03:12:06.955Z,6.23
2019-04-23T03:17:51.910Z,6.83
2019-04-23T03:23:23.166Z,7.00
2019-04-23T03:28:38.094Z,5.77
2019-04-23T03:39:08.334Z,8.90
2019-04-23T03:44:47.900Z,8.03
2019-04-23T03:49:56.018Z,5.93
2019-04-23T03:55:10.205Z,11.00
2019-04-23T04:00:47.385Z,8.37
2019-04-23T04:16:36.156Z,5.20
2019-04-23T04:22:11.440Z,6.13
2019-04-23T04:32:32.857Z,7.90
2019-04-23T04:38:13.011Z,9.30
2019-04-23T04:43:27.085Z,5.90
2019-04-23T04:48:33.523Z,5.53
2019-04-23T04:59:13.983Z,6.83
2019-04-23T05:04:39.912Z,5.77
2019-04-23T05:15:25.545Z,6.80
2019-04-23T05:20:36.645Z,9.20
2019-04-23T05:25:52.888Z,8.07
2019-04-23T05:31:17.560Z,10.00
2019-04-23T05:36:37.469Z,5.70
2019-04-23T05:41:55.742Z,10.83
2019-04-23T05:47:16.626Z,11.23
2019-04-23T05:52:37.892Z,12.03
2019-04-23T05:57:52.474Z,7.37
2019-04-23T06:03:15.936Z,7.53
2019-04-23T06:08:40.926Z,6.07
2019-04-23T06:14:02.373Z,10.73
2019-04-23T06:24:34.957Z,9.83
2019-04-23T06:29:57.013Z,6.87
2019-04-23T06:35:19.116Z,7.17
2019-04-23T06:40:34.305Z,11.37
2019-04-23T06:45:49.741Z,9.70
2019-04-23T06:51:21.737Z,9.00
2019-04-23T06:56:43.345Z,8.03
2019-04-23T07:07:36.542Z,9.30
2019-04-23T07:17:57.377Z,7.67
2019-04-23T07:23:19.648Z,11.60
2019-04-23T07:28:48.255Z,9.90
2019-04-23T07:34:01.314Z,10.63
2019-04-23T07:39:27.298Z,11.37
2019-04-23T07:55:48.174Z,14.80
2019-04-23T08:01:05.014Z,11.77
2019-04-23T08:06:21.540Z,13.43
2019-04-23T08:11:45.804Z,19.03
2019-04-23T08:17:04.276Z,19.73
2019-04-23T08:27:51.783Z,17.20
2019-04-23T08:33:10.973Z,13.53
2019-04-23T08:38:36.263Z,13.10
2019-04-23T08:44:18.280Z,15.40
2019-04-23T08:49:22.195Z,13.27
2019-04-23T08:59:55.997Z,14.30
2019-04-23T09:05:15.822Z,12.20
2019-04-23T09:10:42.793Z,12.67
2019-04-23T09:15:56.587Z,13.47
2019-04-23T09:21:15.512Z,10.40
2019-04-23T09:26:33.172Z,13.60
2019-04-23T09:37:35.641Z,15.47
2019-04-23T09:48:18.129Z,11.10
2019-04-23T09:53:48.751Z,10.17
2019-04-23T09:59:08.967Z,9.23
2019-04-23T10:04:13.537Z,9.40
2019-04-23T10:09:20.431Z,16.47
2019-04-23T10:14:51.141Z,10.90
2019-04-23T10:20:00.526Z,10.87
2019-04-23T10:25:19.419Z,9.88
2019-04-23T10:30:38.492Z,16.00
2019-04-23T10:36:03.226Z,15.50
2019-04-23T10:41:18.328Z,12.87
2019-04-23T10:47:28.151Z,10.43
2019-04-23T10:52:36.211Z,14.87
2019-04-23T10:58:01.962Z,11.07
2019-04-23T11:03:42.218Z,14.43
2019-04-23T11:08:40.531Z,10.80
2019-04-23T11:14:09.672Z,14.13
2019-04-23T11:19:32.471Z,14.13
2019-04-23T11:30:19.601Z,14.53
2019-04-23T11:40:43.629Z,14.58
2019-04-23T11:46:29.340Z,15.67
2019-04-23T11:57:16.441Z,12.47
2019-04-23T12:02:19.014Z,13.80
2019-04-23T12:07:34.049Z,11.77
2019-04-23T12:12:57.672Z,16.13
2019-04-23T12:18:24.102Z,16.77
2019-04-23T12:23:52.297Z,22.57
2019-04-23T12:29:05.428Z,14.00
2019-04-23T12:34:26.158Z,13.17
2019-04-23T12:39:41.944Z,11.17
2019-04-23T12:45:07.012Z,10.90
2019-04-23T12:50:44.065Z,12.50
2019-04-23T12:55:40.034Z,16.62
2019-04-23T13:00:58.621Z,14.13
2019-04-23T13:06:20.415Z,17.87
2019-04-23T13:11:45.063Z,16.27
2019-04-23T13:17:11.519Z,14.17
2019-04-23T13:22:37.437Z,12.67
2019-04-23T13:27:56.601Z,10.33
2019-04-23T13:33:18.187Z,15.30
2019-04-23T13:43:42.565Z,14.27
2019-04-23T13:49:00.653Z,9.93
2019-04-23T13:54:48.947Z,13.53
2019-04-23T13:59:49.543Z,10.43
2019-04-23T14:10:34.181Z,9.37
2019-04-23T14:16:04.540Z,9.67
2019-04-23T14:21:19.051Z,10.90
2019-04-23T14:26:34.881Z,16.83
2019-04-23T14:32:05.196Z,6.43
2019-04-23T14:37:38.187Z,11.65
2019-04-23T14:42:44.912Z,9.80
2019-04-23T14:48:05.984Z,13.90
2019-04-23T14:53:20.292Z,12.53
2019-04-23T15:04:16.046Z,11.17
2019-04-23T15:14:59.862Z,11.97
2019-04-23T15:20:03.341Z,16.27
2019-04-23T15:25:36.710Z,13.23
2019-04-23T15:30:50.920Z,9.30
2019-04-23T15:36:27.417Z,10.40
2019-04-23T15:41:32.121Z,9.23
2019-04-23T15:46:50.314Z,13.17
2019-04-23T15:52:07.389Z,8.07
2019-04-23T15:57:48.975Z,8.27
2019-04-23T16:02:18.340Z,13.50
2019-04-23T16:07:54.878Z,7.83
2019-04-23T16:13:29.062Z,14.93
2019-04-23T16:19:05.488Z,10.17
2019-04-23T16:24:22.239Z,15.67
2019-04-23T16:29:44.109Z,9.53
2019-04-23T16:35:06.164Z,9.63
2019-04-23T16:40:19.531Z,13.47
2019-04-23T16:45:36.876Z,12.50
2019-04-23T16:51:12.238Z,12.40
2019-04-23T16:56:25.832Z,7.77
2019-04-23T17:01:35.343Z,10.67
2019-04-23T17:06:57.567Z,9.40
2019-04-23T17:17:41.048Z,9.67
2019-04-23T17:23:08.645Z,10.13
2019-04-23T17:28:23.317Z,6.85
2019-04-23T17:33:42.025Z,12.63
2019-04-23T17:50:01.589Z,10.97
2019-04-23T17:55:10.171Z,9.60
2019-04-23T18:05:52.310Z,10.43
2019-04-23T18:16:35.073Z,12.50
2019-04-23T18:22:07.416Z,14.77
2019-04-23T18:38:18.693Z,16.83
2019-04-23T18:54:15.186Z,14.40
2019-04-23T18:59:46.372Z,16.93
2019-04-23T19:10:36.042Z,14.03
2019-04-23T19:15:50.534Z,10.60
2019-04-23T19:21:15.610Z,10.03
2019-04-23T19:31:57.011Z,12.13
2019-04-23T19:37:23.847Z,9.90
2019-04-23T19:48:13.428Z,7.27
2019-04-23T19:53:32.353Z,14.77
2019-04-23T19:58:56.656Z,11.67
2019-04-23T20:03:56.145Z,12.53
2019-04-23T20:14:56.472Z,14.63
2019-04-23T20:20:02.893Z,10.30
2019-04-23T20:25:56.620Z,14.10
2019-04-23T20:36:21.739Z,14.63
2019-04-23T20:42:02.443Z,9.27
2019-04-23T20:47:10.228Z,13.13
2019-04-23T20:52:20.452Z,13.30
2019-04-23T20:57:56.865Z,18.03
2019-04-23T21:03:41.498Z,12.10
2019-04-23T21:09:11.692Z,12.13
2019-04-23T21:14:33.438Z,11.60
2019-04-23T21:19:42.152Z,11.15
2019-04-23T21:30:09.083Z,16.13
2019-04-23T21:36:03.129Z,19.00
2019-04-23T21:57:31.013Z,11.47
2019-04-23T22:02:45.560Z,20.30
2019-04-23T22:08:17.003Z,20.20
2019-04-23T22:18:48.489Z,18.00
2019-04-23T22:24:03.153Z,15.73
2019-04-23T22:34:46.904Z,11.90
2019-04-23T22:40:07.468Z,9.97
2019-04-23T22:45:29.338Z,14.47
2019-04-23T22:50:57.543Z,10.45
2019-04-23T23:01:50.381Z,11.17
2019-04-23T23:06:55.665Z,14.17
2019-04-23T23:12:34.153Z,13.37
2019-04-23T23:17:33.724Z,14.23
2019-04-23T23:22:59.155Z,16.90
2019-04-23T23:28:12.183Z,12.90
2019-04-23T23:33:36.252Z,16.13
2019-04-23T23:44:27.677Z,11.17
2019-04-23T23:49:34.396Z,18.07
2019-04-23T23:54:54.281Z,14.83
